Time;durP1;ratioP1;P1;durP2;ratioP2;P2;SDS_P1;SDS_P2;PMS_P1;PMS_P2;Temp;Humidity;BMP_temperature;BMP_pressure;BME280_temperature;BME280_humidity;BME280_pressure;Samples;Min_cycle;Max_cycle;Signal;HPM_P1;HPM_P2
2022/09/05 00:00:56;;;;;;;7.28;2.15;;;;;;;;;;5042731;28;20522;-84
2022/09/05 00:03:37;;;;;;;2.67;2.00;;;;;;;;;;5056081;28;20024;-84
2022/09/05 00:06:09;;;;;;;2.45;1.88;;;;;;;;;;5041897;28;20036;-84
2022/09/05 00:08:46;;;;;;;4.23;2.17;;;;;;;;;;5038706;28;20049;-85
2022/09/05 00:11:18;;;;;;;2.83;1.98;;;;;;;;;;5051175;28;20037;-84
2022/09/05 00:14:24;;;;;;;3.38;1.75;;;;;;;;;;5048421;28;20120;-85
2022/09/05 00:16:49;;;;;;;5.35;2.15;;;;;;;;;;5058072;28;20128;-84
2022/09/05 00:19:42;;;;;;;2.90;1.92;;;;;;;;;;5049802;28;20494;-85
2022/09/05 00:22:29;;;;;;;3.17;1.85;;;;;;;;;;5049492;28;20060;-85
2022/09/05 00:25:25;;;;;;;3.80;2.05;;;;;;;;;;5046275;28;20034;-84
2022/09/05 00:28:00;;;;;;;3.17;2.22;;;;;;;;;;5048111;28;20514;-84
2022/09/05 00:30:30;;;;;;;4.15;2.42;;;;;;;;;;5047984;28;20359;-85
2022/09/05 00:33:25;;;;;;;3.25;2.00;;;;;;;;;;5050072;28;20029;-84
2022/09/05 00:35:50;;;;;;;4.07;2.30;;;;;;;;;;5036317;28;20049;-84
2022/09/05 00:38:20;;;;;;;3.75;2.45;;;;;;;;;;5050583;28;20040;-84
2022/09/05 00:40:52;;;;;;;5.70;2.20;;;;;;;;;;5049261;28;20391;-84
2022/09/05 00:43:17;;;;;;;2.20;2.00;;;;;;;;;;5035417;28;20065;-84
2022/09/05 00:45:53;;;;;;;3.95;2.20;;;;;;;;;;5045181;28;20064;-84
2022/09/05 00:48:24;;;;;;;5.57;2.33;;;;;;;;;;5035892;28;20506;-84
2022/09/05 00:51:19;;;;;;;6.10;2.53;;;;;;;;;;5047790;28;20028;-84
2022/09/05 00:54:04;;;;;;;5.15;2.55;;;;;;;;;;5045726;28;20053;-84
2022/09/05 00:57:08;;;;;;;3.17;2.13;;;;;;;;;;5030947;28;20053;-84
2022/09/05 01:00:04;;;;;;;3.30;2.30;;;;;;;;;;5058812;28;20583;-84
2022/09/05 01:02:29;;;;;;;3.88;2.38;;;;;;;;;;5042654;28;20307;-85
2022/09/05 01:05:03;;;;;;;3.40;2.20;;;;;;;;;;5049084;28;20057;-84
2022/09/05 01:07:40;;;;;;;3.53;2.20;;;;;;;;;;5043295;28;20049;-84
2022/09/05 01:10:32;;;;;;;4.70;2.58;;;;;;;;;;5048550;28;20055;-85
2022/09/05 01:13:21;;;;;;;3.05;2.22;;;;;;;;;;5052538;28;20132;-84
2022/09/05 01:16:01;;;;;;;3.67;2.28;;;;;;;;;;5043335;28;20042;-84
2022/09/05 01:18:54;;;;;;;3.08;2.05;;;;;;;;;;5043807;28;20044;-85
2022/09/05 01:21:29;;;;;;;4.07;2.30;;;;;;;;;;5036634;28;20033;-85
2022/09/05 01:24:07;;;;;;;5.07;2.10;;;;;;;;;;5039493;28;20033;-84
2022/09/05 01:26:43;;;;;;;5.05;2.65;;;;;;;;;;5040212;28;20632;-85
2022/09/05 01:29:35;;;;;;;2.80;2.22;;;;;;;;;;5040337;28;20053;-84
2022/09/05 01:32:07;;;;;;;6.10;2.78;;;;;;;;;;5046787;28;20040;-86
2022/09/05 01:34:59;;;;;;;4.50;2.50;;;;;;;;;;5044667;28;20422;-84
2022/09/05 01:37:46;;;;;;;3.08;2.13;;;;;;;;;;5043546;28;20037;-84
2022/09/05 01:40:18;;;;;;;2.78;2.30;;;;;;;;;;5049864;28;20045;-84
2022/09/05 01:43:08;;;;;;;2.47;1.90;;;;;;;;;;5064552;28;20834;-85
2022/09/05 01:45:50;;;;;;;4.13;2.38;;;;;;;;;;5057371;28;20037;-84
2022/09/05 01:48:22;;;;;;;4.35;2.35;;;;;;;;;;5050425;28;20125;-85
2022/09/05 01:50:55;;;;;;;6.35;2.80;;;;;;;;;;5048904;28;20036;-87
2022/09/05 01:54:04;;;;;;;3.50;2.33;;;;;;;;;;5046562;28;20045;-85
2022/09/05 01:57:01;;;;;;;7.63;3.03;;;;;;;;;;5048211;28;20051;-85
2022/09/05 02:00:05;;;;;;;7.13;3.65;;;;;;;;;;5024548;28;20041;-86
2022/09/05 02:02:48;;;;;;;7.22;3.80;;;;;;;;;;5040842;28;20505;-85
2022/09/05 02:05:29;;;;;;;7.38;3.88;;;;;;;;;;5056128;28;20048;-85
2022/09/05 02:08:32;;;;;;;7.38;3.95;;;;;;;;;;5046784;28;20098;-85
2022/09/05 02:11:04;;;;;;;7.78;4.40;;;;;;;;;;5042092;28;20033;-84
2022/09/05 02:13:33;;;;;;;7.20;4.40;;;;;;;;;;5039527;28;20069;-84
2022/09/05 02:16:17;;;;;;;10.77;5.18;;;;;;;;;;5043599;28;20132;-85
2022/09/05 02:19:16;;;;;;;8.68;4.55;;;;;;;;;;5035759;28;20071;-84
2022/09/05 02:22:03;;;;;;;6.28;3.97;;;;;;;;;;5045131;28;20037;-84
2022/09/05 02:24:34;;;;;;;7.40;4.38;;;;;;;;;;5048258;28;20033;-84
2022/09/05 02:27:28;;;;;;;7.53;4.63;;;;;;;;;;5040835;28;20045;-85
2022/09/05 02:29:56;;;;;;;;;;;;;;;;;;5049444;28;20047;-84
2022/09/05 02:32:42;;;;;;;7.55;3.97;;;;;;;;;;5046991;28;20840;-84
2022/09/05 02:35:32;;;;;;;7.75;4.18;;;;;;;;;;5047072;28;20503;-84
2022/09/05 02:38:17;;;;;;;6.05;3.97;;;;;;;;;;5041961;28;20588;-84
2022/09/05 02:40:49;;;;;;;10.32;4.03;;;;;;;;;;5048843;28;20456;-84
2022/09/05 02:43:43;;;;;;;8.45;4.00;;;;;;;;;;5046668;28;20537;-84
2022/09/05 02:46:17;;;;;;;7.13;3.72;;;;;;;;;;5050982;28;20033;-84
2022/09/05 02:48:52;;;;;;;9.70;4.05;;;;;;;;;;5042742;28;20041;-84
2022/09/05 02:51:25;;;;;;;5.65;2.97;;;;;;;;;;5038915;28;20025;-84
2022/09/05 02:53:59;;;;;;;5.70;3.22;;;;;;;;;;5052028;28;20025;-85
2022/09/05 02:56:44;;;;;;;8.60;3.15;;;;;;;;;;5049395;28;20055;-85
2022/09/05 02:59:31;;;;;;;3.83;2.58;;;;;;;;;;5049422;28;20047;-85
2022/09/05 03:02:25;;;;;;;4.65;2.47;;;;;;;;;;5052207;28;20033;-85
2022/09/05 03:05:06;;;;;;;3.88;2.50;;;;;;;;;;5014297;28;20045;-84
2022/09/05 03:08:09;;;;;;;4.18;2.42;;;;;;;;;;5044657;28;20462;-85
2022/09/05 03:11:02;;;;;;;3.70;2.20;;;;;;;;;;5031299;28;20042;-84
2022/09/05 03:13:46;;;;;;;4.55;2.30;;;;;;;;;;5032147;28;20048;-85
2022/09/05 03:16:20;;;;;;;4.63;2.30;;;;;;;;;;5039749;28;20578;-84
2022/09/05 03:19:19;;;;;;;3.90;2.03;;;;;;;;;;5050603;28;20051;-84
2022/09/05 03:21:47;;;;;;;2.42;1.73;;;;;;;;;;5042769;28;20060;-85
2022/09/05 03:24:43;;;;;;;4.13;2.03;;;;;;;;;;5045542;28;20033;-84
2022/09/05 03:27:34;;;;;;;2.78;1.98;;;;;;;;;;5031879;28;20025;-84
2022/09/05 03:30:14;;;;;;;4.93;2.15;;;;;;;;;;5031325;28;20022;-83
2022/09/05 03:33:01;;;;;;;4.45;2.10;;;;;;;;;;5037502;28;20403;-84
2022/09/05 03:35:59;;;;;;;2.70;1.65;;;;;;;;;;5045636;28;20127;-84
2022/09/05 03:39:15;;;;;;;2.80;2.20;;;;;;;;;;5037800;28;20525;-83
2022/09/05 03:41:44;;;;;;;3.00;2.00;;;;;;;;;;5043966;28;20045;-84
2022/09/05 03:44:29;;;;;;;3.45;1.90;;;;;;;;;;5054702;28;20041;-84
2022/09/05 03:47:10;;;;;;;2.65;1.75;;;;;;;;;;5050381;28;20037;-85
2022/09/05 03:50:03;;;;;;;3.05;2.10;;;;;;;;;;5049428;28;20568;-83
2022/09/05 03:52:55;;;;;;;2.97;2.00;;;;;;;;;;5044741;28;20049;-84
2022/09/05 03:55:58;;;;;;;3.28;2.00;;;;;;;;;;5044691;28;20037;-86
2022/09/05 03:58:51;;;;;;;3.47;1.88;;;;;;;;;;5036684;28;20037;-85
2022/09/05 04:01:22;;;;;;;2.90;1.88;;;;;;;;;;5051559;28;20123;-84
2022/09/05 04:03:54;;;;;;;3.28;1.98;;;;;;;;;;5050272;28;20441;-84
2022/09/05 04:06:26;;;;;;;3.85;2.47;;;;;;;;;;5049129;28;20551;-84
2022/09/05 04:09:37;;;;;;;3.13;2.07;;;;;;;;;;5043191;28;20103;-84
2022/09/05 04:12:20;;;;;;;4.00;1.90;;;;;;;;;;5036877;28;20345;-84
2022/09/05 04:14:51;;;;;;;2.53;1.80;;;;;;;;;;5042217;28;20029;-84
2022/09/05 04:17:20;;;;;;;2.72;1.95;;;;;;;;;;5044265;28;20655;-84
2022/09/05 04:20:19;;;;;;;2.53;1.45;;;;;;;;;;5046884;28;20099;-85
2022/09/05 04:23:15;;;;;;;6.47;1.90;;;;;;;;;;5029086;28;20589;-85
2022/09/05 04:25:52;;;;;;;3.15;2.22;;;;;;;;;;5049696;28;20033;-85
2022/09/05 04:28:40;;;;;;;2.85;1.90;;;;;;;;;;5056940;28;20781;-84
2022/09/05 04:31:33;;;;;;;2.33;2.00;;;;;;;;;;5046415;28;20067;-85
2022/09/05 04:34:04;;;;;;;3.47;2.07;;;;;;;;;;5063949;28;20047;-85
2022/09/05 04:36:33;;;;;;;4.45;2.08;;;;;;;;;;5059016;28;20037;-85
2022/09/05 04:39:16;;;;;;;5.25;2.30;;;;;;;;;;5046702;28;20021;-85
2022/09/05 04:41:44;;;;;;;;;;;;;;;;;;5047635;28;20422;-84
2022/09/05 04:44:15;;;;;;;3.00;1.90;;;;;;;;;;5042631;28;19920;-84
2022/09/05 04:46:45;;;;;;;2.95;1.67;;;;;;;;;;5045183;28;20063;-84
2022/09/05 04:49:23;;;;;;;4.15;1.85;;;;;;;;;;5047511;28;20087;-85
2022/09/05 04:51:55;;;;;;;3.53;2.00;;;;;;;;;;5046373;28;20044;-84
2022/09/05 04:54:26;;;;;;;2.50;1.63;;;;;;;;;;5056636;28;20056;-85
2022/09/05 04:56:59;;;;;;;3.13;1.85;;;;;;;;;;5042320;28;20043;-87
2022/09/05 04:59:30;;;;;;;2.92;2.03;;;;;;;;;;5045112;28;20670;-85
2022/09/05 05:02:02;;;;;;;2.53;1.88;;;;;;;;;;5044951;28;20470;-87
2022/09/05 05:04:28;;;;;;;2.83;1.90;;;;;;;;;;5047126;28;20040;-87
2022/09/05 05:07:06;;;;;;;2.92;1.70;;;;;;;;;;5046759;28;20029;-87
2022/09/05 05:09:43;;;;;;;3.33;1.83;;;;;;;;;;5046532;28;20442;-84
2022/09/05 05:12:49;;;;;;;3.47;2.15;;;;;;;;;;5041139;28;20039;-84
2022/09/05 05:15:20;;;;;;;2.28;1.67;;;;;;;;;;5036890;28;20037;-84
2022/09/05 05:17:55;;;;;;;3.40;2.00;;;;;;;;;;5045935;28;20053;-87
2022/09/05 05:20:50;;;;;;;3.90;1.80;;;;;;;;;;5041588;28;20037;-84
2022/09/05 05:23:18;;;;;;;2.38;1.85;;;;;;;;;;5046102;28;20057;-84
2022/09/05 05:25:53;;;;;;;2.67;1.98;;;;;;;;;;5047810;28;20041;-85
2022/09/05 05:28:19;;;;;;;2.63;1.92;;;;;;;;;;5045695;28;20041;-84
2022/09/05 05:30:44;;;;;;;2.10;1.55;;;;;;;;;;5045578;28;20040;-84
2022/09/05 05:33:24;;;;;;;2.35;1.70;;;;;;;;;;5045319;28;20067;-86
2022/09/05 05:35:51;;;;;;;2.95;2.10;;;;;;;;;;5046586;28;20128;-86
2022/09/05 05:38:16;;;;;;;4.30;1.90;;;;;;;;;;5045371;28;20040;-84
2022/09/05 05:40:55;;;;;;;2.67;1.92;;;;;;;;;;5044509;28;20464;-86
2022/09/05 05:43:36;;;;;;;1.77;1.60;;;;;;;;;;5038726;28;20453;-86
2022/09/05 05:46:02;;;;;;;4.47;2.22;;;;;;;;;;5045644;28;20055;-83
2022/09/05 05:48:38;;;;;;;3.25;2.08;;;;;;;;;;5046968;28;20033;-83
2022/09/05 05:51:19;;;;;;;4.05;1.80;;;;;;;;;;5044977;28;20033;-84
2022/09/05 05:54:04;;;;;;;2.17;1.63;;;;;;;;;;5046184;28;20043;-84
2022/09/05 05:56:45;;;;;;;3.17;1.88;;;;;;;;;;5057367;28;20040;-83
2022/09/05 05:59:45;;;;;;;3.55;1.73;;;;;;;;;;5043297;28;20380;-83
2022/09/05 06:02:48;;;;;;;4.45;2.20;;;;;;;;;;5026348;28;20045;-84
2022/09/05 06:05:34;;;;;;;3.08;1.95;;;;;;;;;;5045323;28;20068;-83
2022/09/05 06:08:08;;;;;;;3.42;1.70;;;;;;;;;;5042413;28;20037;-83
2022/09/05 06:11:01;;;;;;;7.10;2.05;;;;;;;;;;5055895;28;20497;-83
2022/09/05 06:14:01;;;;;;;4.45;2.33;;;;;;;;;;5055419;28;20036;-86
2022/09/05 06:17:02;;;;;;;2.65;2.00;;;;;;;;;;5037636;28;20044;-84
2022/09/05 06:19:30;;;;;;;2.33;1.92;;;;;;;;;;5033577;28;20044;-85
2022/09/05 06:22:34;;;;;;;5.30;2.08;;;;;;;;;;5039746;28;20025;-85
2022/09/05 06:25:27;;;;;;;3.33;1.80;;;;;;;;;;5040070;28;20040;-85
2022/09/05 06:28:05;;;;;;;2.60;1.77;;;;;;;;;;5044319;28;20476;-85
2022/09/05 06:30:39;;;;;;;3.42;2.53;;;;;;;;;;5037088;28;20041;-85
2022/09/05 06:33:20;;;;;;;5.20;2.20;;;;;;;;;;5036853;28;20033;-86
2022/09/05 06:36:07;;;;;;;4.30;2.20;;;;;;;;;;5032695;28;20410;-86
2022/09/05 06:38:33;;;;;;;5.85;2.00;;;;;;;;;;5037303;28;20033;-86
2022/09/05 06:41:39;;;;;;;3.83;2.25;;;;;;;;;;5038016;28;20056;-84
2022/09/05 06:44:42;;;;;;;3.05;1.95;;;;;;;;;;5046760;28;20415;-84
2022/09/05 06:47:17;;;;;;;3.80;1.80;;;;;;;;;;5052770;28;20043;-84
2022/09/05 06:50:23;;;;;;;4.82;1.98;;;;;;;;;;5044026;28;20119;-84
2022/09/05 06:53:07;;;;;;;3.60;2.00;;;;;;;;;;4982817;28;20038;-83
2022/09/05 06:55:53;;;;;;;3.47;1.92;;;;;;;;;;4964821;28;20038;-84
2022/09/05 06:58:48;;;;;;;4.03;1.95;;;;;;;;;;5026254;28;20120;-84
2022/09/05 07:01:25;;;;;;;2.42;1.90;;;;;;;;;;5038844;28;20037;-85
2022/09/05 07:04:15;;;;;;;3.60;2.05;;;;;;;;;;5034575;28;20076;-85
2022/09/05 07:07:22;;;;;;;3.78;2.00;;;;;;;;;;5041532;28;20116;-86
2022/09/05 07:09:52;;;;;;;1.90;1.60;;;;;;;;;;5036166;28;20703;-86
2022/09/05 07:12:25;;;;;;;3.00;1.95;;;;;;;;;;5035309;28;20025;-86
2022/09/05 07:15:18;;;;;;;4.78;1.85;;;;;;;;;;5038778;28;20072;-86
2022/09/05 07:17:58;;;;;;;2.83;2.07;;;;;;;;;;5038995;28;20052;-85
2022/09/05 07:20:35;;;;;;;3.65;1.92;;;;;;;;;;5051227;28;20053;-85
2022/09/05 07:23:24;;;;;;;3.20;1.85;;;;;;;;;;5035188;28;20510;-86
2022/09/05 07:25:53;;;;;;;3.50;2.08;;;;;;;;;;5037652;28;20125;-86
2022/09/05 07:28:19;;;;;;;3.60;2.10;;;;;;;;;;5040953;28;20072;-85
2022/09/05 07:30:51;;;;;;;2.85;2.13;;;;;;;;;;5038902;28;20020;-86
2022/09/05 07:33:41;;;;;;;2.90;2.03;;;;;;;;;;5041267;28;20041;-87
2022/09/05 07:36:16;;;;;;;3.47;2.00;;;;;;;;;;5028676;28;20060;-85
2022/09/05 07:38:49;;;;;;;7.53;1.98;;;;;;;;;;5039098;28;20043;-87
2022/09/05 07:41:28;;;;;;;4.18;2.17;;;;;;;;;;5039565;28;20044;-87
2022/09/05 07:44:01;;;;;;;2.45;1.75;;;;;;;;;;5043602;28;20044;-86
2022/09/05 07:46:34;;;;;;;3.67;2.10;;;;;;;;;;5039445;28;20111;-87
2022/09/05 07:49:04;;;;;;;2.83;1.90;;;;;;;;;;5039658;28;20059;-86
2022/09/05 07:51:33;;;;;;;5.15;2.00;;;;;;;;;;5056724;28;20030;-88
2022/09/05 07:54:09;;;;;;;2.50;2.00;;;;;;;;;;5040783;28;20110;-86
2022/09/05 07:56:49;;;;;;;2.30;2.00;;;;;;;;;;5039417;28;20553;-86
2022/09/05 07:59:16;;;;;;;2.75;2.05;;;;;;;;;;5045519;28;20116;-85
2022/09/05 08:01:47;;;;;;;3.10;2.10;;;;;;;;;;5045674;28;20051;-87
2022/09/05 08:08:06;;;;;;;4.90;2.00;;;;;;;;;;5050756;28;20552;-85
2022/09/05 08:10:37;;;;;;;6.38;2.28;;;;;;;;;;5042055;28;20033;-84
2022/09/05 08:13:07;;;;;;;3.83;2.10;;;;;;;;;;5023303;28;20033;-84
2022/09/05 08:15:35;;;;;;;4.80;1.90;;;;;;;;;;5036692;28;20029;-85
2022/09/05 08:18:25;;;;;;;2.45;2.05;;;;;;;;;;5045669;28;20407;-85
2022/09/05 08:21:13;;;;;;;2.05;1.80;;;;;;;;;;5037957;28;20052;-84
2022/09/05 08:24:00;;;;;;;5.03;2.50;;;;;;;;;;5034361;28;20657;-86
2022/09/05 08:27:10;;;;;;;2.75;2.10;;;;;;;;;;5032203;28;20436;-84
2022/09/05 08:29:39;;;;;;;2.83;2.20;;;;;;;;;;5035761;28;20293;-86
2022/09/05 08:32:20;;;;;;;3.60;2.05;;;;;;;;;;5050470;28;20156;-85
2022/09/05 08:34:58;;;;;;;3.78;2.03;;;;;;;;;;5037174;28;20144;-85
2022/09/05 08:37:30;;;;;;;3.55;2.20;;;;;;;;;;4936742;28;150530;-86
2022/09/05 08:40:06;;;;;;;5.13;2.15;;;;;;;;;;5049493;28;20017;-86
2022/09/05 08:42:43;;;;;;;4.78;2.20;;;;;;;;;;5044320;28;20027;-86
2022/09/05 08:45:20;;;;;;;6.03;1.95;;;;;;;;;;5016419;28;20049;-86
2022/09/05 08:47:54;;;;;;;2.80;2.10;;;;;;;;;;5044064;28;20521;-86
2022/09/05 08:50:46;;;;;;;2.60;1.98;;;;;;;;;;5060598;28;20032;-86
2022/09/05 08:53:45;;;;;;;2.33;1.83;;;;;;;;;;5038483;28;21361;-85
2022/09/05 08:56:37;;;;;;;4.60;2.17;;;;;;;;;;5058862;28;20116;-85
2022/09/05 08:59:21;;;;;;;4.97;2.10;;;;;;;;;;5038998;28;20070;-85
2022/09/05 09:02:44;;;;;;;3.78;2.00;;;;;;;;;;5039679;28;20539;-87
2022/09/05 09:05:19;;;;;;;3.92;2.42;;;;;;;;;;5038646;28;20032;-88
2022/09/05 09:08:00;;;;;;;3.53;2.17;;;;;;;;;;5044360;28;20136;-88
2022/09/05 09:11:05;;;;;;;6.78;2.13;;;;;;;;;;5048036;28;20044;-87
2022/09/05 09:13:42;;;;;;;3.88;2.38;;;;;;;;;;5059409;28;20036;-86
2022/09/05 09:16:18;;;;;;;4.13;2.40;;;;;;;;;;5047622;28;20109;-88
2022/09/05 09:19:07;;;;;;;3.55;2.22;;;;;;;;;;5044740;28;20103;-87
2022/09/05 09:21:44;;;;;;;2.50;2.00;;;;;;;;;;5058923;28;20056;-86
2022/09/05 09:24:29;;;;;;;3.83;2.20;;;;;;;;;;5024905;28;20124;-87
2022/09/05 09:27:04;;;;;;;3.33;2.10;;;;;;;;;;5047149;28;20044;-86
2022/09/05 09:29:35;;;;;;;5.25;2.13;;;;;;;;;;5039745;28;20032;-85
2022/09/05 09:32:07;;;;;;;4.32;2.47;;;;;;;;;;5064168;28;20362;-88
2022/09/05 09:34:57;;;;;;;3.22;2.13;;;;;;;;;;5058699;28;20391;-86
2022/09/05 09:37:41;;;;;;;4.07;2.50;;;;;;;;;;5042132;28;20737;-88
2022/09/05 09:40:33;;;;;;;4.22;2.47;;;;;;;;;;5044046;28;20041;-87
2022/09/05 09:43:26;;;;;;;7.30;2.05;;;;;;;;;;5056095;28;20601;-87
2022/09/05 09:45:57;;;;;;;2.78;1.85;;;;;;;;;;5041816;28;20024;-86
2022/09/05 09:48:59;;;;;;;3.38;2.17;;;;;;;;;;5057658;28;20460;-87
2022/09/05 09:51:38;;;;;;;3.13;2.20;;;;;;;;;;5047754;28;20043;-86
2022/09/05 09:54:39;;;;;;;4.38;1.90;;;;;;;;;;5044625;28;20459;-86
2022/09/05 09:57:19;;;;;;;4.18;1.92;;;;;;;;;;5050025;28;20037;-87
2022/09/05 10:00:12;;;;;;;4.95;1.88;;;;;;;;;;5035233;28;20059;-85
2022/09/05 10:03:09;;;;;;;3.63;2.10;;;;;;;;;;5040878;28;20804;-87
2022/09/05 10:05:53;;;;;;;4.60;2.00;;;;;;;;;;5043028;28;21017;-86
2022/09/05 10:08:45;;;;;;;3.05;1.80;;;;;;;;;;5060219;28;20048;-87
2022/09/05 10:11:35;;;;;;;2.38;1.77;;;;;;;;;;5036862;28;20047;-90
2022/09/05 10:14:11;;;;;;;2.42;1.83;;;;;;;;;;5043511;28;20045;-88
2022/09/05 10:17:00;;;;;;;4.45;1.85;;;;;;;;;;5033582;28;20119;-84
2022/09/05 10:19:47;;;;;;;2.42;1.83;;;;;;;;;;5069698;28;20037;-86
2022/09/05 10:22:37;;;;;;;2.95;1.95;;;;;;;;;;5041530;28;20571;-87
2022/09/05 10:25:19;;;;;;;3.22;2.00;;;;;;;;;;5038540;28;20027;-86
2022/09/05 10:28:10;;;;;;;4.20;2.00;;;;;;;;;;5058886;28;20024;-86
2022/09/05 10:30:39;;;;;;;2.13;1.88;;;;;;;;;;5064076;28;20044;-87
2022/09/05 10:33:30;;;;;;;3.60;2.00;;;;;;;;;;5040767;28;20040;-87
2022/09/05 10:36:20;;;;;;;2.67;1.75;;;;;;;;;;5039062;28;20037;-86
2022/09/05 10:38:58;;;;;;;2.10;1.90;;;;;;;;;;5046455;28;20484;-88
2022/09/05 10:41:44;;;;;;;1.90;1.63;;;;;;;;;;5044432;28;20785;-86
2022/09/05 10:44:12;;;;;;;3.00;1.85;;;;;;;;;;5045188;28;20033;-89
2022/09/05 10:46:56;;;;;;;1.77;1.67;;;;;;;;;;5043057;28;20052;-88
2022/09/05 10:49:34;;;;;;;4.13;2.00;;;;;;;;;;5040509;28;20028;-86
2022/09/05 10:52:11;;;;;;;2.50;1.75;;;;;;;;;;5042866;28;20672;-86
2022/09/05 10:54:53;;;;;;;3.67;2.15;;;;;;;;;;5056764;28;20437;-87
2022/09/05 10:57:42;;;;;;;2.58;1.65;;;;;;;;;;5042422;28;20144;-87
2022/09/05 11:00:50;;;;;;;2.67;1.83;;;;;;;;;;5040814;28;20433;-87
2022/09/05 11:03:22;;;;;;;2.42;1.90;;;;;;;;;;5045961;28;20803;-87
2022/09/05 11:05:57;;;;;;;2.22;1.90;;;;;;;;;;5036163;28;20553;-87
2022/09/05 11:08:49;;;;;;;2.58;2.08;;;;;;;;;;5045183;28;20067;-87
2022/09/05 11:11:21;;;;;;;2.13;1.65;;;;;;;;;;5056031;28;20049;-87
2022/09/05 11:13:54;;;;;;;2.70;1.70;;;;;;;;;;5036600;28;20642;-85
2022/09/05 11:16:44;;;;;;;3.42;1.80;;;;;;;;;;5042334;28;20040;-89
2022/09/05 11:19:41;;;;;;;2.65;1.70;;;;;;;;;;5044141;28;20040;-85
2022/09/05 11:22:08;;;;;;;3.58;1.83;;;;;;;;;;5064180;28;20048;-84
2022/09/05 11:24:39;;;;;;;3.28;1.63;;;;;;;;;;5065399;28;20028;-89
2022/09/05 11:27:17;;;;;;;2.45;1.80;;;;;;;;;;5048573;28;20044;-89
2022/09/05 11:29:50;;;;;;;2.25;1.77;;;;;;;;;;5050027;28;20068;-87
2022/09/05 11:32:53;;;;;;;3.10;1.70;;;;;;;;;;5065700;28;20075;-87
2022/09/05 11:35:22;;;;;;;3.75;1.83;;;;;;;;;;5049044;28;20043;-89
2022/09/05 11:38:06;;;;;;;3.45;1.92;;;;;;;;;;5049324;28;20068;-87
2022/09/05 11:40:56;;;;;;;2.00;1.60;;;;;;;;;;5040010;28;20036;-87
2022/09/05 11:43:42;;;;;;;2.15;1.95;;;;;;;;;;5033690;28;20055;-87
2022/09/05 11:46:35;;;;;;;2.00;1.80;;;;;;;;;;5042029;28;20114;-86
2022/09/05 11:49:31;;;;;;;2.03;1.83;;;;;;;;;;5038048;28;20036;-87
2022/09/05 11:52:40;;;;;;;5.82;1.85;;;;;;;;;;5040663;28;20449;-86
2022/09/05 11:55:28;;;;;;;2.03;1.63;;;;;;;;;;5049704;28;20453;-85
2022/09/05 11:58:12;;;;;;;4.43;2.13;;;;;;;;;;5063640;28;20086;-85
2022/09/05 12:00:50;;;;;;;2.47;1.90;;;;;;;;;;5043536;28;20029;-85
2022/09/05 12:03:56;;;;;;;3.67;1.83;;;;;;;;;;5039786;28;20048;-85
2022/09/05 12:06:40;;;;;;;2.00;1.80;;;;;;;;;;5052611;28;20110;-86
2022/09/05 12:09:27;;;;;;;2.72;1.77;;;;;;;;;;5044063;28;20056;-86
2022/09/05 12:12:06;;;;;;;3.08;1.80;;;;;;;;;;5039270;28;20098;-86
2022/09/05 12:15:00;;;;;;;2.60;1.88;;;;;;;;;;5038752;28;20549;-85
2022/09/05 12:17:53;;;;;;;2.20;2.00;;;;;;;;;;5062729;28;20064;-87
2022/09/05 12:20:29;;;;;;;2.53;1.83;;;;;;;;;;5066568;28;20036;-86
2022/09/05 12:23:17;;;;;;;3.22;2.10;;;;;;;;;;5038528;28;20037;-85
2022/09/05 12:25:49;;;;;;;1.98;1.75;;;;;;;;;;5060179;28;20036;-87
2022/09/05 12:28:38;;;;;;;2.00;1.65;;;;;;;;;;5038281;28;20172;-87
2022/09/05 12:31:13;;;;;;;3.25;2.10;;;;;;;;;;5064221;28;20060;-87
2022/09/05 12:33:44;;;;;;;3.60;1.70;;;;;;;;;;5047692;28;20112;-86
2022/09/05 12:36:34;;;;;;;3.17;2.00;;;;;;;;;;5056827;28;20544;-86
2022/09/05 12:39:05;;;;;;;3.20;1.80;;;;;;;;;;5060397;28;20044;-86
2022/09/05 12:41:49;;;;;;;2.47;1.90;;;;;;;;;;5045988;28;20141;-86
2022/09/05 12:44:38;;;;;;;2.53;1.92;;;;;;;;;;5047697;28;20062;-87
2022/09/05 12:47:07;;;;;;;2.40;1.95;;;;;;;;;;5062386;28;20040;-85
2022/09/05 12:49:56;;;;;;;3.13;2.33;;;;;;;;;;5048222;28;20573;-85
2022/09/05 12:52:35;;;;;;;7.05;1.90;;;;;;;;;;5034498;28;20775;-85
2022/09/05 12:55:32;;;;;;;5.22;1.90;;;;;;;;;;5063469;28;20336;-84
2022/09/05 12:58:09;;;;;;;2.92;1.77;;;;;;;;;;5055935;28;20052;-86
2022/09/05 13:00:44;;;;;;;8.30;2.30;;;;;;;;;;5038305;28;20103;-85
2022/09/05 13:03:27;;;;;;;4.03;1.88;;;;;;;;;;5060842;28;20509;-85
2022/09/05 13:06:02;;;;;;;;;;;;;;;;;;5054768;28;20510;-86
2022/09/05 13:08:42;;;;;;;2.75;1.95;;;;;;;;;;5045364;28;19925;-86
2022/09/05 13:11:09;;;;;;;2.60;1.90;;;;;;;;;;5063061;28;20047;-86
2022/09/05 13:14:01;;;;;;;2.90;2.00;;;;;;;;;;5037872;28;20132;-87
2022/09/05 13:16:30;;;;;;;1.98;1.70;;;;;;;;;;5042016;28;20064;-86
2022/09/05 13:19:06;;;;;;;2.63;1.90;;;;;;;;;;5045092;28;20021;-88
2022/09/05 13:21:36;;;;;;;2.42;1.80;;;;;;;;;;5045198;28;20028;-88
2022/09/05 13:24:11;;;;;;;3.65;1.88;;;;;;;;;;5039920;28;20105;-86
2022/09/05 13:26:58;;;;;;;3.63;1.80;;;;;;;;;;5057860;28;20536;-85
2022/09/05 13:29:32;;;;;;;3.25;1.90;;;;;;;;;;5042342;28;20067;-86
2022/09/05 13:32:01;;;;;;;3.10;2.10;;;;;;;;;;5041090;28;20059;-86
2022/09/05 13:34:55;;;;;;;2.35;2.08;;;;;;;;;;5060383;28;20529;-88
2022/09/05 13:37:47;;;;;;;4.22;2.00;;;;;;;;;;5047120;28;20513;-85
2022/09/05 13:40:22;;;;;;;4.18;2.17;;;;;;;;;;5043404;28;20033;-87
2022/09/05 13:43:33;;;;;;;2.88;1.90;;;;;;;;;;5050158;28;20116;-87
2022/09/05 13:46:32;;;;;;;2.10;1.90;;;;;;;;;;5004261;28;20506;-86
2022/09/05 13:49:36;;;;;;;1.98;1.75;;;;;;;;;;5058911;28;20051;-88
2022/09/05 13:52:09;;;;;;;2.92;1.88;;;;;;;;;;4989238;28;20634;-87
2022/09/05 13:54:53;;;;;;;2.53;1.90;;;;;;;;;;5053289;28;20759;-84
2022/09/05 13:57:40;;;;;;;3.13;2.10;;;;;;;;;;5065098;28;20040;-85
2022/09/05 14:00:05;;;;;;;2.50;1.80;;;;;;;;;;5055428;28;20048;-87
2022/09/05 14:06:48;;;;;;;3.35;2.08;;;;;;;;;;5045998;28;20071;-87
2022/09/05 14:09:48;;;;;;;4.60;2.30;;;;;;;;;;5032824;28;20071;-86
2022/09/05 14:12:33;;;;;;;4.22;1.95;;;;;;;;;;5043165;28;20048;-86
2022/09/05 14:15:26;;;;;;;2.67;2.08;;;;;;;;;;5040300;28;20136;-88
2022/09/05 14:18:04;;;;;;;13.40;2.47;;;;;;;;;;5004510;28;20518;-88
2022/09/05 14:23:23;;;;;;;2.90;2.00;;;;;;;;;;5043755;28;20095;-89
2022/09/05 14:25:55;;;;;;;2.78;2.00;;;;;;;;;;5032691;28;20053;-89
2022/09/05 14:28:26;;;;;;;2.13;1.92;;;;;;;;;;5027941;28;20034;-89
2022/09/05 14:31:05;;;;;;;2.70;2.15;;;;;;;;;;5030479;28;20029;-90
2022/09/05 14:33:46;;;;;;;2.55;1.90;;;;;;;;;;5038150;28;20033;-89
2022/09/05 14:36:32;;;;;;;3.20;2.20;;;;;;;;;;5036025;28;20533;-88
2022/09/05 14:39:32;;;;;;;2.10;1.90;;;;;;;;;;5022520;28;20041;-87
2022/09/05 14:52:30;;;;;;;3.25;1.75;;;;;;;;;;5026219;28;20045;-87
2022/09/05 14:55:15;;;;;;;3.10;2.20;;;;;;;;;;5004517;28;20046;-88
2022/09/05 14:57:43;;;;;;;3.05;2.15;;;;;;;;;;5008749;28;20034;-88
2022/09/05 15:00:21;;;;;;;2.17;1.92;;;;;;;;;;5038215;28;20649;-88
2022/09/05 15:02:59;;;;;;;3.90;1.80;;;;;;;;;;5048447;28;20029;-89
2022/09/05 15:05:27;;;;;;;1.80;1.70;;;;;;;;;;5037570;28;20129;-91
2022/09/05 15:08:16;;;;;;;2.10;1.90;;;;;;;;;;5040864;28;20091;-88
2022/09/05 15:10:44;;;;;;;2.60;2.40;;;;;;;;;;5054408;28;20533;-87
2022/09/05 15:13:10;;;;;;;4.70;2.10;;;;;;;;;;5039653;28;20586;-89
2022/09/05 15:15:45;;;;;;;2.00;1.80;;;;;;;;;;5038892;28;20045;-87
2022/09/05 15:18:18;;;;;;;3.13;1.73;;;;;;;;;;5040322;28;20044;-88
2022/09/05 15:20:54;;;;;;;3.33;2.00;;;;;;;;;;5038074;28;20025;-88
2022/09/05 15:23:23;;;;;;;3.33;2.00;;;;;;;;;;5037324;28;20045;-89
2022/09/05 15:26:14;;;;;;;5.05;2.25;;;;;;;;;;5020491;28;21690;-87
2022/09/05 15:28:49;;;;;;;5.18;2.08;;;;;;;;;;5034488;28;20048;-87
2022/09/05 15:31:17;;;;;;;3.40;2.05;;;;;;;;;;5039140;28;20525;-89
2022/09/05 15:33:43;;;;;;;3.20;1.92;;;;;;;;;;5038523;28;20045;-88
2022/09/05 15:36:12;;;;;;;5.43;2.30;;;;;;;;;;5038844;28;20024;-88
2022/09/05 15:38:40;;;;;;;3.25;2.00;;;;;;;;;;5043203;28;20098;-89
2022/09/05 15:41:09;;;;;;;3.72;1.80;;;;;;;;;;5038450;28;20118;-88
2022/09/05 15:44:06;;;;;;;3.17;2.10;;;;;;;;;;5033548;28;20041;-86
2022/09/05 15:49:48;;;;;;;2.47;2.13;;;;;;;;;;5036603;28;20037;-87
2022/09/05 15:52:16;;;;;;;4.25;2.40;;;;;;;;;;5035966;28;20102;-87
2022/09/05 15:55:22;;;;;;;3.05;2.40;;;;;;;;;;5032230;28;20462;-86
2022/09/05 15:57:58;;;;;;;5.55;2.35;;;;;;;;;;5030200;28;20090;-87
2022/09/05 16:00:33;;;;;;;2.65;2.40;;;;;;;;;;5035488;28;20132;-86
2022/09/05 16:03:19;;;;;;;9.82;2.50;;;;;;;;;;5034154;28;20087;-85
2022/09/05 16:05:58;;;;;;;5.70;2.33;;;;;;;;;;5037626;28;20021;-86
2022/09/05 16:08:32;;;;;;;3.85;2.28;;;;;;;;;;5032650;28;20057;-86
2022/09/05 16:11:20;;;;;;;5.40;2.35;;;;;;;;;;5038276;28;20120;-86
2022/09/05 16:13:46;;;;;;;4.47;2.50;;;;;;;;;;5048571;28;20044;-86
2022/09/05 16:16:13;;;;;;;3.92;2.42;;;;;;;;;;5044359;28;20033;-87
2022/09/05 16:18:46;;;;;;;3.65;2.53;;;;;;;;;;5029277;28;20037;-87
2022/09/05 16:21:13;;;;;;;3.78;2.30;;;;;;;;;;5053286;28;20566;-86
2022/09/05 16:23:55;;;;;;;4.45;2.13;;;;;;;;;;5044986;28;20063;-86
2022/09/05 16:26:27;;;;;;;6.22;2.13;;;;;;;;;;5032246;28;20037;-86
2022/09/05 16:29:00;;;;;;;2.80;2.17;;;;;;;;;;5051951;28;20044;-87
2022/09/05 16:31:49;;;;;;;3.67;1.88;;;;;;;;;;5040182;28;20280;-86
2022/09/05 16:34:48;;;;;;;2.15;1.90;;;;;;;;;;5039778;28;20053;-87